createdAt,value
2022-08-03T00:00:26.420Z,19.80
2022-08-03T00:02:53.876Z,19.70
2022-08-03T00:05:21.071Z,19.70
2022-08-03T00:07:49.373Z,19.70
2022-08-03T00:10:16.734Z,19.70
2022-08-03T00:12:43.863Z,19.60
2022-08-03T00:15:15.162Z,19.60
2022-08-03T00:17:53.080Z,19.60
2022-08-03T00:20:24.402Z,19.60
2022-08-03T00:22:51.682Z,19.50
2022-08-03T00:25:19.258Z,19.50
2022-08-03T00:27:46.207Z,19.40
2022-08-03T00:30:16.985Z,19.40
2022-08-03T00:32:45.307Z,19.40
2022-08-03T00:35:27.350Z,19.40
2022-08-03T00:38:00.073Z,19.40
2022-08-03T00:40:27.258Z,19.40
2022-08-03T00:43:01.628Z,19.30
2022-08-03T00:45:30.574Z,19.30
2022-08-03T00:47:57.840Z,19.20
2022-08-03T00:50:25.569Z,19.20
2022-08-03T00:52:53.586Z,19.20
2022-08-03T00:55:20.710Z,19.20
2022-08-03T00:57:47.785Z,19.10
2022-08-03T01:00:23.380Z,19.10
2022-08-03T01:02:50.568Z,19.10
2022-08-03T01:05:17.587Z,19.10
2022-08-03T01:08:04.338Z,19.00
2022-08-03T01:10:42.242Z,19.10
2022-08-03T01:14:01.861Z,19.00
2022-08-03T01:16:40.146Z,19.00
2022-08-03T01:19:20.391Z,19.00
2022-08-03T01:22:09.030Z,18.90
2022-08-03T01:24:50.232Z,18.90
2022-08-03T01:27:22.119Z,18.90
2022-08-03T01:30:08.409Z,18.90
2022-08-03T01:33:01.849Z,18.90
2022-08-03T01:35:52.734Z,18.80
2022-08-03T01:38:43.096Z,18.90
2022-08-03T01:41:13.827Z,18.90
2022-08-03T01:44:28.358Z,18.90
2022-08-03T01:46:30.623Z,18.90
2022-08-03T01:48:57.770Z,18.90
2022-08-03T01:51:25.128Z,18.80
2022-08-03T01:54:12.037Z,18.80
2022-08-03T01:56:40.964Z,18.80
2022-08-03T01:59:07.962Z,18.80
2022-08-03T02:02:19.534Z,18.80
2022-08-03T02:04:22.269Z,18.80
2022-08-03T02:07:00.623Z,18.80
2022-08-03T02:09:29.897Z,18.80
2022-08-03T02:11:56.807Z,18.90
2022-08-03T02:14:24.134Z,18.90
2022-08-03T02:16:51.089Z,18.90
2022-08-03T02:19:17.958Z,19.00
2022-08-03T02:21:56.927Z,19.00
2022-08-03T02:24:28.853Z,19.00
2022-08-03T02:26:56.310Z,19.00
2022-08-03T02:29:40.070Z,19.00
2022-08-03T02:32:11.009Z,19.00
2022-08-03T02:34:37.994Z,19.10
2022-08-03T02:37:05.167Z,19.10
2022-08-03T02:39:32.195Z,19.10
2022-08-03T02:42:02.488Z,19.20
2022-08-03T02:44:32.594Z,19.20
2022-08-03T02:47:02.647Z,19.20
2022-08-03T02:49:40.510Z,19.20
2022-08-03T02:52:16.700Z,19.30
2022-08-03T02:54:44.738Z,19.30
2022-08-03T02:57:11.688Z,19.40
2022-08-03T02:59:38.605Z,19.40
2022-08-03T03:02:05.675Z,19.40
2022-08-03T03:04:33.298Z,19.30
2022-08-03T03:07:01.796Z,19.40
2022-08-03T03:09:41.598Z,19.40
2022-08-03T03:12:10.683Z,19.40
2022-08-03T03:14:38.500Z,19.40
2022-08-03T03:17:08.365Z,19.40
2022-08-03T03:19:35.349Z,19.50
2022-08-03T03:22:02.585Z,19.40
2022-08-03T03:24:30.058Z,19.40
2022-08-03T03:26:57.289Z,19.40
2022-08-03T03:29:24.190Z,19.30
2022-08-03T03:31:51.094Z,19.40
2022-08-03T03:34:18.563Z,19.30
2022-08-03T03:36:45.675Z,19.40
2022-08-03T03:39:16.004Z,19.40
2022-08-03T03:41:43.404Z,19.40
2022-08-03T03:44:10.405Z,19.40
2022-08-03T03:46:38.433Z,19.40
2022-08-03T03:49:08.422Z,19.40
2022-08-03T03:51:35.577Z,19.50
2022-08-03T03:54:04.627Z,19.50
2022-08-03T03:56:31.783Z,19.50
2022-08-03T03:58:58.884Z,19.60
2022-08-03T04:01:26.332Z,19.50
2022-08-03T04:03:53.399Z,19.50
2022-08-03T04:06:38.914Z,19.40
2022-08-03T04:09:24.222Z,19.40
2022-08-03T04:11:55.083Z,19.40
2022-08-03T04:14:27.153Z,19.50
2022-08-03T04:16:56.987Z,19.50
2022-08-03T04:19:37.960Z,19.50
2022-08-03T04:22:07.439Z,19.40
2022-08-03T04:24:35.739Z,19.50
2022-08-03T04:27:04.389Z,19.50
2022-08-03T04:29:31.690Z,19.50
2022-08-03T04:31:58.763Z,19.50
2022-08-03T04:34:25.830Z,19.50
2022-08-03T04:36:54.881Z,19.50
2022-08-03T04:39:26.683Z,19.50
2022-08-03T04:42:06.955Z,19.50
2022-08-03T04:44:39.212Z,19.50
2022-08-03T04:47:06.357Z,19.50
2022-08-03T04:49:33.326Z,19.40
2022-08-03T04:52:00.329Z,19.50
2022-08-03T04:54:27.238Z,19.50
2022-08-03T04:56:54.127Z,19.50
2022-08-03T04:59:21.245Z,19.50
2022-08-03T05:01:48.351Z,19.50
2022-08-03T05:04:15.313Z,19.60
2022-08-03T05:06:48.233Z,19.60
2022-08-03T05:09:15.231Z,19.50
2022-08-03T05:12:02.163Z,19.50
2022-08-03T05:14:29.317Z,19.50
2022-08-03T05:16:56.210Z,19.50
2022-08-03T05:19:23.180Z,19.60
2022-08-03T05:21:52.222Z,19.50
2022-08-03T05:24:19.964Z,19.60
2022-08-03T05:26:46.873Z,19.60
2022-08-03T05:29:13.776Z,19.50
2022-08-03T05:31:40.720Z,19.60
2022-08-03T05:34:08.193Z,19.60
2022-08-03T05:36:35.263Z,19.60
2022-08-03T05:39:02.884Z,19.70
2022-08-03T05:41:36.912Z,19.70
2022-08-03T05:44:04.695Z,19.80
2022-08-03T05:46:31.661Z,19.80
2022-08-03T05:48:58.697Z,19.80
2022-08-03T05:51:25.732Z,19.80
2022-08-03T05:53:52.826Z,19.80
2022-08-03T05:56:23.675Z,19.90
2022-08-03T05:58:51.777Z,19.90
2022-08-03T06:01:19.069Z,19.90
2022-08-03T06:03:46.449Z,19.90
2022-08-03T06:06:13.411Z,20.00
2022-08-03T06:08:41.273Z,20.10
2022-08-03T06:11:08.311Z,20.00
2022-08-03T06:13:35.375Z,20.00
2022-08-03T06:16:02.404Z,20.00
2022-08-03T06:18:29.296Z,20.10
2022-08-03T06:20:56.589Z,20.20
2022-08-03T06:23:52.364Z,20.30
2022-08-03T06:26:10.620Z,20.20
2022-08-03T06:28:52.978Z,20.40
2022-08-03T06:31:32.838Z,20.40
2022-08-03T06:34:32.989Z,20.50
2022-08-03T06:36:52.411Z,20.50
2022-08-03T06:39:19.866Z,20.60
2022-08-03T06:41:46.927Z,20.60
2022-08-03T06:44:14.004Z,20.60
2022-08-03T06:46:41.059Z,20.40
2022-08-03T06:49:08.322Z,20.40
2022-08-03T06:52:04.476Z,20.40
2022-08-03T06:54:26.391Z,20.50
2022-08-03T06:56:54.555Z,20.40
2022-08-03T07:00:09.847Z,20.50
2022-08-03T07:02:09.828Z,20.60
2022-08-03T07:04:37.361Z,20.70
2022-08-03T07:07:04.286Z,20.80
2022-08-03T07:09:31.178Z,20.80
2022-08-03T07:11:58.841Z,20.90
2022-08-03T07:14:25.858Z,20.80
2022-08-03T07:16:52.838Z,20.80
2022-08-03T07:19:19.720Z,20.80
2022-08-03T07:21:47.299Z,20.90
2022-08-03T07:24:14.509Z,21.00
2022-08-03T07:26:41.714Z,21.10
2022-08-03T07:29:14.915Z,21.10
2022-08-03T07:31:42.430Z,21.10
2022-08-03T07:34:09.399Z,21.20
2022-08-03T07:36:36.364Z,21.40
2022-08-03T07:39:15.828Z,21.20
2022-08-03T07:41:45.438Z,21.20
2022-08-03T07:44:12.490Z,21.10
2022-08-03T07:46:39.578Z,21.00
2022-08-03T07:49:06.527Z,21.20
2022-08-03T07:51:33.621Z,21.30
2022-08-03T07:54:01.032Z,21.20
2022-08-03T07:56:28.523Z,21.20
2022-08-03T07:58:55.695Z,21.20
2022-08-03T08:01:23.190Z,21.20
2022-08-03T08:03:52.922Z,21.40
2022-08-03T08:06:21.357Z,21.30
2022-08-03T08:08:48.371Z,21.40
2022-08-03T08:11:15.371Z,21.50
2022-08-03T08:13:42.498Z,21.40
2022-08-03T08:16:09.387Z,21.30
2022-08-03T08:18:36.352Z,21.40
2022-08-03T08:21:03.536Z,21.60
2022-08-03T08:23:42.584Z,21.70
2022-08-03T08:26:10.655Z,21.80
2022-08-03T08:28:37.577Z,22.00
2022-08-03T08:31:04.561Z,22.10
2022-08-03T08:36:18.601Z,22.00
2022-08-03T08:38:45.852Z,22.00
2022-08-03T08:41:13.636Z,22.10
2022-08-03T08:43:41.110Z,22.40
2022-08-03T08:46:08.664Z,22.50
2022-08-03T08:48:36.553Z,22.50
2022-08-03T08:51:03.497Z,22.40
2022-08-03T08:53:32.496Z,22.50
2022-08-03T08:56:01.308Z,22.70
2022-08-03T08:58:37.218Z,23.00
2022-08-03T09:01:06.202Z,23.30
2022-08-03T09:03:36.309Z,23.10
2022-08-03T09:06:03.577Z,23.20
2022-08-03T09:08:31.302Z,23.60
2022-08-03T09:10:58.526Z,24.00
2022-08-03T09:13:25.681Z,23.70
2022-08-03T09:16:15.372Z,23.90
2022-08-03T09:18:43.555Z,23.70
2022-08-03T09:21:32.868Z,23.60
2022-08-03T09:24:03.384Z,23.50
2022-08-03T09:26:31.556Z,23.90
2022-08-03T09:29:09.651Z,24.30
2022-08-03T09:31:43.467Z,24.10
2022-08-03T09:34:12.504Z,24.20
2022-08-03T09:36:44.032Z,23.90
2022-08-03T09:39:14.742Z,23.80
2022-08-03T09:41:45.908Z,23.60
2022-08-03T09:44:24.427Z,23.90
2022-08-03T09:46:56.788Z,24.00
2022-08-03T09:49:24.543Z,24.00
2022-08-03T09:52:33.607Z,23.90
2022-08-03T09:54:38.848Z,23.70
2022-08-03T09:57:05.820Z,24.00
2022-08-03T09:59:33.309Z,24.40
2022-08-03T10:02:00.551Z,24.60
2022-08-03T10:04:27.589Z,24.40
2022-08-03T10:07:06.476Z,24.50
2022-08-03T10:09:33.520Z,24.70
2022-08-03T10:12:26.916Z,24.80
2022-08-03T10:14:54.348Z,25.30
2022-08-03T10:17:24.393Z,24.90
2022-08-03T10:19:51.312Z,25.00
2022-08-03T10:22:26.573Z,25.00
2022-08-03T10:24:59.483Z,25.20
2022-08-03T10:27:27.963Z,25.00
2022-08-03T10:29:56.536Z,25.50
2022-08-03T10:32:29.128Z,25.80
2022-08-03T10:35:04.028Z,25.90
2022-08-03T10:37:56.485Z,25.40
2022-08-03T10:40:47.549Z,25.30
2022-08-03T10:43:23.133Z,25.50
2022-08-03T10:45:50.225Z,25.60
2022-08-03T10:48:17.454Z,26.00
2022-08-03T10:50:44.648Z,26.10
2022-08-03T10:53:11.712Z,25.80
2022-08-03T10:56:05.636Z,25.60
2022-08-03T10:58:53.218Z,25.60
2022-08-03T11:02:00.104Z,25.90
2022-08-03T11:04:29.806Z,25.80
2022-08-03T11:07:19.342Z,25.90
2022-08-03T11:09:54.571Z,25.80
2022-08-03T11:12:31.215Z,25.60
2022-08-03T11:15:07.279Z,25.80
2022-08-03T11:17:46.925Z,26.00
2022-08-03T11:20:48.835Z,26.30
2022-08-03T11:23:16.868Z,26.20
2022-08-03T11:26:10.004Z,26.40
2022-08-03T11:28:38.889Z,26.40
2022-08-03T11:34:15.154Z,26.30
2022-08-03T11:37:23.159Z,26.30
2022-08-03T11:39:53.069Z,26.20
2022-08-03T11:42:23.299Z,26.50
2022-08-03T11:45:00.141Z,26.20
2022-08-03T11:47:28.363Z,26.10
2022-08-03T11:49:57.515Z,26.20
2022-08-03T11:52:27.210Z,26.00
2022-08-03T11:54:56.860Z,25.70
2022-08-03T11:59:17.241Z,25.60
2022-08-03T12:00:25.999Z,25.50
2022-08-03T12:03:10.576Z,25.60
2022-08-03T12:05:51.113Z,25.90
2022-08-03T12:08:39.940Z,26.10
2022-08-03T12:11:09.082Z,26.40
2022-08-03T12:14:05.736Z,26.20
2022-08-03T12:16:30.743Z,26.30
2022-08-03T12:19:04.865Z,26.40
2022-08-03T12:21:31.995Z,26.30
2022-08-03T12:24:00.588Z,26.30
2022-08-03T12:26:28.436Z,26.40
2022-08-03T12:28:55.504Z,26.40
2022-08-03T12:31:22.756Z,26.60
2022-08-03T12:34:03.353Z,26.50
2022-08-03T12:36:32.240Z,26.40
2022-08-03T12:39:04.405Z,26.60
2022-08-03T12:41:35.571Z,26.80
2022-08-03T12:44:03.631Z,27.00
2022-08-03T12:46:32.438Z,26.90
2022-08-03T12:49:06.730Z,26.90
2022-08-03T12:51:35.935Z,27.00
2022-08-03T12:54:03.610Z,27.10
2022-08-03T12:56:30.674Z,27.00
2022-08-03T12:58:57.574Z,27.00
2022-08-03T13:01:26.072Z,26.80
2022-08-03T13:03:53.935Z,26.90
2022-08-03T13:06:25.534Z,26.90
2022-08-03T13:09:05.528Z,26.80
2022-08-03T13:11:55.531Z,27.00
2022-08-03T13:14:20.481Z,27.20
2022-08-03T13:16:49.496Z,27.00
2022-08-03T13:19:16.650Z,26.90
2022-08-03T13:22:01.367Z,26.70
2022-08-03T13:24:33.325Z,26.90
2022-08-03T13:27:00.910Z,27.00
2022-08-03T13:29:48.029Z,26.90
2022-08-03T13:32:15.084Z,26.80
2022-08-03T13:34:42.126Z,26.90
2022-08-03T13:37:10.254Z,27.10
2022-08-03T13:39:57.682Z,27.10
2022-08-03T13:42:24.824Z,27.30
2022-08-03T13:44:51.781Z,27.50
2022-08-03T13:47:20.478Z,27.50
2022-08-03T13:49:59.864Z,27.50
2022-08-03T13:52:32.678Z,27.30
2022-08-03T13:55:00.392Z,27.00
2022-08-03T13:58:04.432Z,27.20
2022-08-03T14:00:26.306Z,27.20
2022-08-03T14:03:06.538Z,27.30
2022-08-03T14:05:39.670Z,27.30
2022-08-03T14:08:07.069Z,27.40
2022-08-03T14:10:38.263Z,27.50
2022-08-03T14:13:05.212Z,27.40
2022-08-03T14:15:32.119Z,27.40
2022-08-03T14:18:04.342Z,27.30
2022-08-03T14:20:38.925Z,27.40
2022-08-03T14:23:15.880Z,27.30
2022-08-03T14:25:50.457Z,27.40
2022-08-03T14:28:20.903Z,27.50
2022-08-03T14:30:48.680Z,27.70
2022-08-03T14:33:16.014Z,27.60
2022-08-03T14:35:43.333Z,27.70
2022-08-03T14:38:10.246Z,27.80
2022-08-03T14:40:37.166Z,27.90
2022-08-03T14:43:04.337Z,27.80
2022-08-03T14:45:31.321Z,27.80
2022-08-03T14:50:31.856Z,27.70
2022-08-03T14:50:51.028Z,27.50
2022-08-03T14:53:19.180Z,27.60
2022-08-03T14:55:50.748Z,27.40
2022-08-03T14:58:22.637Z,27.30
2022-08-03T15:00:50.420Z,27.30
2022-08-03T15:03:20.525Z,27.40
2022-08-03T15:05:47.726Z,27.40
2022-08-03T15:08:14.682Z,27.50
2022-08-03T15:10:45.229Z,27.50
2022-08-03T15:13:15.719Z,27.50
2022-08-03T15:15:42.825Z,27.40
2022-08-03T15:18:10.016Z,27.20
2022-08-03T15:20:44.491Z,27.50
2022-08-03T15:23:13.021Z,27.40
2022-08-03T15:26:04.174Z,27.20
2022-08-03T15:28:27.092Z,27.20
2022-08-03T15:30:54.140Z,27.20
2022-08-03T15:33:21.248Z,27.30
2022-08-03T15:35:48.266Z,27.50
2022-08-03T15:38:15.194Z,27.50
2022-08-03T15:40:42.294Z,27.40
2022-08-03T15:43:09.440Z,27.50
2022-08-03T15:45:36.953Z,27.40
2022-08-03T15:48:05.764Z,27.30
2022-08-03T15:50:32.895Z,27.30
2022-08-03T15:53:00.147Z,27.20
2022-08-03T15:55:27.359Z,27.20
2022-08-03T15:59:04.358Z,27.20
2022-08-03T16:00:41.959Z,27.40
2022-08-03T16:03:09.205Z,27.60
2022-08-03T16:05:36.230Z,27.60
2022-08-03T16:08:05.124Z,27.60
2022-08-03T16:10:34.061Z,27.60
2022-08-03T16:13:01.140Z,27.70
2022-08-03T16:15:28.295Z,27.80
2022-08-03T16:17:55.378Z,27.70
2022-08-03T16:20:29.703Z,27.70
2022-08-03T16:23:01.525Z,27.70
2022-08-03T16:25:35.416Z,27.40
2022-08-03T16:28:07.811Z,27.40
2022-08-03T16:30:40.092Z,27.30
2022-08-03T16:33:07.124Z,27.20
2022-08-03T16:35:34.273Z,27.30
2022-08-03T16:38:01.174Z,27.20
2022-08-03T16:40:28.494Z,27.20
2022-08-03T16:42:55.738Z,27.10
2022-08-03T16:45:22.694Z,27.20
2022-08-03T16:48:01.467Z,27.00
2022-08-03T16:50:33.028Z,27.00
2022-08-03T16:52:59.954Z,27.10
2022-08-03T16:55:48.855Z,27.10
2022-08-03T16:58:15.187Z,27.10
2022-08-03T17:00:44.195Z,27.00
2022-08-03T17:03:20.440Z,27.00
2022-08-03T17:05:49.822Z,26.90
2022-08-03T17:08:26.079Z,26.90
2022-08-03T17:10:54.627Z,26.80
2022-08-03T17:13:22.745Z,26.90
2022-08-03T17:16:01.591Z,26.80
2022-08-03T17:18:32.951Z,26.80
2022-08-03T17:20:59.879Z,26.80
2022-08-03T17:23:47.912Z,26.80
2022-08-03T17:26:21.627Z,26.90
2022-08-03T17:28:58.088Z,26.80
2022-08-03T17:31:32.028Z,26.60
2022-08-03T17:34:00.797Z,26.50
2022-08-03T17:36:47.523Z,26.60
2022-08-03T17:39:16.644Z,26.50
2022-08-03T17:41:49.001Z,26.40
2022-08-03T17:44:33.184Z,26.40
2022-08-03T17:47:06.525Z,26.40
2022-08-03T17:49:40.128Z,26.50
2022-08-03T17:52:21.975Z,26.50
2022-08-03T17:55:55.940Z,26.60
2022-08-03T17:58:21.041Z,26.50
2022-08-03T18:02:00.825Z,26.30
2022-08-03T18:03:58.326Z,26.20
2022-08-03T18:06:28.970Z,26.20
2022-08-03T18:08:56.528Z,26.10
2022-08-03T18:11:24.239Z,26.10
2022-08-03T18:14:33.544Z,26.10
2022-08-03T18:17:06.254Z,26.10
2022-08-03T18:20:02.373Z,25.90
2022-08-03T18:22:28.048Z,25.90
2022-08-03T18:24:57.712Z,25.80
2022-08-03T18:27:25.215Z,25.80
2022-08-03T18:30:11.891Z,25.70
2022-08-03T18:32:38.964Z,25.60
2022-08-03T18:35:06.453Z,25.50
2022-08-03T18:37:52.141Z,25.50
2022-08-03T18:40:20.678Z,25.50
2022-08-03T18:42:51.051Z,25.40
2022-08-03T18:45:55.634Z,25.30
2022-08-03T18:48:20.128Z,25.20
2022-08-03T18:51:02.247Z,25.20
2022-08-03T18:54:02.588Z,25.10
2022-08-03T18:56:42.551Z,25.10
2022-08-03T18:59:16.611Z,25.20
2022-08-03T19:02:03.829Z,25.10
2022-08-03T19:04:49.187Z,25.00
2022-08-03T19:07:26.897Z,25.10
2022-08-03T19:09:56.306Z,25.10
2022-08-03T19:12:31.155Z,25.10
2022-08-03T19:15:12.554Z,25.10
2022-08-03T19:17:53.406Z,25.10
2022-08-03T19:20:28.261Z,25.10
2022-08-03T19:22:56.123Z,25.00
2022-08-03T19:25:35.227Z,24.90
2022-08-03T19:28:10.698Z,24.80
2022-08-03T19:30:46.193Z,24.70
2022-08-03T19:33:14.394Z,24.70
2022-08-03T19:35:51.634Z,24.60
2022-08-03T19:38:27.623Z,24.60
2022-08-03T19:41:02.372Z,24.60
2022-08-03T19:43:49.359Z,24.50
2022-08-03T19:46:22.422Z,24.50
2022-08-03T19:49:14.489Z,24.50
2022-08-03T19:52:01.483Z,24.50
2022-08-03T19:54:32.297Z,24.40
2022-08-03T19:56:59.324Z,24.40
2022-08-03T19:59:26.709Z,24.40
2022-08-03T20:01:53.675Z,24.30
2022-08-03T20:04:21.789Z,24.30
2022-08-03T20:06:49.658Z,24.20
2022-08-03T20:09:16.891Z,24.10
2022-08-03T20:11:45.182Z,24.10
2022-08-03T20:14:20.572Z,24.10
2022-08-03T20:16:59.370Z,24.00
2022-08-03T20:22:14.489Z,24.00
2022-08-03T20:24:41.572Z,23.90
2022-08-03T20:27:11.806Z,23.90
2022-08-03T20:30:05.469Z,23.80
2022-08-03T20:32:28.484Z,23.70
2022-08-03T20:34:55.476Z,23.70
2022-08-03T20:37:22.783Z,23.70
2022-08-03T20:39:49.986Z,23.70
2022-08-03T20:42:21.253Z,23.60
2022-08-03T20:45:04.505Z,23.60
2022-08-03T20:47:35.680Z,23.60
2022-08-03T20:50:03.877Z,23.50
2022-08-03T20:52:32.200Z,23.50
2022-08-03T20:54:59.459Z,23.40
2022-08-03T20:57:33.139Z,23.50
2022-08-03T21:00:04.695Z,23.50
2022-08-03T21:02:32.107Z,23.40
2022-08-03T21:08:06.463Z,23.40
2022-08-03T21:10:35.796Z,23.30
2022-08-03T21:13:07.969Z,23.40
2022-08-03T21:13:11.101Z,24.00
2022-08-03T21:13:26.009Z,23.40
2022-08-03T21:16:06.861Z,23.40
2022-08-03T21:18:50.546Z,23.40
2022-08-03T21:21:19.204Z,23.30
2022-08-03T21:23:54.325Z,23.20
2022-08-03T21:26:22.969Z,23.20
2022-08-03T21:28:51.833Z,23.20
2022-08-03T21:31:24.356Z,23.10
2022-08-03T21:33:57.368Z,23.10
2022-08-03T21:36:29.608Z,23.20
2022-08-03T21:38:57.414Z,23.00
2022-08-03T21:41:28.949Z,23.00
2022-08-03T21:43:55.876Z,23.00
2022-08-03T21:46:23.036Z,23.00
2022-08-03T21:48:55.866Z,22.90
2022-08-03T21:51:25.023Z,22.80
2022-08-03T21:54:03.980Z,22.80
2022-08-03T21:56:43.217Z,22.80
2022-08-03T21:59:18.269Z,22.70
2022-08-03T22:01:45.994Z,22.70
2022-08-03T22:04:53.576Z,22.70
2022-08-03T22:07:05.225Z,22.70
2022-08-03T22:09:34.272Z,22.60
2022-08-03T22:12:01.174Z,22.50
2022-08-03T22:14:28.102Z,22.50
2022-08-03T22:16:55.376Z,22.50
2022-08-03T22:19:22.538Z,22.40
2022-08-03T22:21:49.700Z,22.40
2022-08-03T22:24:19.473Z,22.40
2022-08-03T22:27:20.474Z,22.40
2022-08-03T22:29:47.601Z,22.30
2022-08-03T22:32:14.740Z,22.30
2022-08-03T22:34:42.250Z,22.20
2022-08-03T22:37:09.346Z,22.30
2022-08-03T22:39:37.347Z,22.30
2022-08-03T22:42:05.130Z,22.20
2022-08-03T22:44:32.139Z,22.20
2022-08-03T22:46:59.039Z,22.20
2022-08-03T22:49:27.554Z,22.20
2022-08-03T22:51:54.824Z,22.20
2022-08-03T22:54:21.720Z,22.10
2022-08-03T22:56:49.320Z,22.10
2022-08-03T22:59:40.907Z,22.10
2022-08-03T23:02:20.448Z,22.00
2022-08-03T23:04:51.331Z,22.00
2022-08-03T23:07:49.362Z,22.00
2022-08-03T23:10:16.633Z,22.00
2022-08-03T23:12:44.042Z,22.00
2022-08-03T23:15:12.817Z,22.00
2022-08-03T23:17:57.401Z,22.00
2022-08-03T23:20:26.995Z,21.90
2022-08-03T23:22:57.645Z,21.80
2022-08-03T23:25:25.320Z,21.80
2022-08-03T23:28:05.174Z,21.70
2022-08-03T23:30:34.560Z,21.70
2022-08-03T23:33:01.606Z,21.60
2022-08-03T23:36:29.738Z,21.60
2022-08-03T23:38:37.047Z,21.50
2022-08-03T23:41:04.834Z,21.40
2022-08-03T23:43:51.138Z,21.40
2022-08-03T23:46:19.849Z,21.40
2022-08-03T23:48:46.783Z,21.40
2022-08-03T23:51:38.315Z,21.30
2022-08-03T23:54:43.099Z,21.30
2022-08-03T23:57:28.944Z,21.30
